sensor_id;sensor_type;location;lat;lon;timestamp;P1;durP1;ratioP1;P2;durP2;ratioP2
23317;SDS011;11831;55.918;37.746;2023-12-29T00:00:08;3.55;;;2.58;;
23317;SDS011;11831;55.918;37.746;2023-12-29T00:02:36;2.92;;;2.30;;
23317;SDS011;11831;55.918;37.746;2023-12-29T00:05:02;4.18;;;2.50;;
23317;SDS011;11831;55.918;37.746;2023-12-29T00:07:30;2.92;;;2.33;;
23317;SDS011;11831;55.918;37.746;2023-12-29T00:09:56;3.00;;;2.55;;
23317;SDS011;11831;55.918;37.746;2023-12-29T00:12:22;2.92;;;2.05;;
23317;SDS011;11831;55.918;37.746;2023-12-29T00:14:48;3.03;;;2.33;;
23317;SDS011;11831;55.918;37.746;2023-12-29T00:17:15;2.83;;;2.17;;
23317;SDS011;11831;55.918;37.746;2023-12-29T00:19:41;2.80;;;2.30;;
23317;SDS011;11831;55.918;37.746;2023-12-29T00:22:07;3.80;;;2.47;;
23317;SDS011;11831;55.918;37.746;2023-12-29T00:24:33;2.75;;;2.37;;
23317;SDS011;11831;55.918;37.746;2023-12-29T00:26:59;3.72;;;2.55;;
23317;SDS011;11831;55.918;37.746;2023-12-29T00:29:25;3.85;;;2.70;;
23317;SDS011;11831;55.918;37.746;2023-12-29T00:31:53;3.80;;;2.30;;
23317;SDS011;11831;55.918;37.746;2023-12-29T00:34:20;3.95;;;2.42;;
23317;SDS011;11831;55.918;37.746;2023-12-29T00:36:46;3.60;;;2.80;;
23317;SDS011;11831;55.918;37.746;2023-12-29T00:39:12;2.95;;;2.40;;
23317;SDS011;11831;55.918;37.746;2023-12-29T00:41:39;3.78;;;2.60;;
23317;SDS011;11831;55.918;37.746;2023-12-29T00:44:06;4.12;;;2.50;;
23317;SDS011;11831;55.918;37.746;2023-12-29T00:46:32;4.47;;;2.83;;
23317;SDS011;11831;55.918;37.746;2023-12-29T00:48:58;5.20;;;3.28;;
23317;SDS011;11831;55.918;37.746;2023-12-29T00:51:24;4.12;;;2.95;;
23317;SDS011;11831;55.918;37.746;2023-12-29T00:53:50;4.07;;;2.80;;
23317;SDS011;11831;55.918;37.746;2023-12-29T00:56:16;3.65;;;2.75;;
23317;SDS011;11831;55.918;37.746;2023-12-29T00:58:42;6.40;;;3.15;;
23317;SDS011;11831;55.918;37.746;2023-12-29T01:01:08;5.53;;;2.80;;
23317;SDS011;11831;55.918;37.746;2023-12-29T01:03:37;3.83;;;2.75;;
23317;SDS011;11831;55.918;37.746;2023-12-29T01:06:03;3.42;;;2.40;;
23317;SDS011;11831;55.918;37.746;2023-12-29T01:08:29;3.75;;;2.58;;
23317;SDS011;11831;55.918;37.746;2023-12-29T01:10:56;2.85;;;2.50;;
23317;SDS011;11831;55.918;37.746;2023-12-29T01:13:22;3.80;;;2.75;;
23317;SDS011;11831;55.918;37.746;2023-12-29T01:15:48;3.97;;;2.70;;
23317;SDS011;11831;55.918;37.746;2023-12-29T01:18:15;5.70;;;2.90;;
23317;SDS011;11831;55.918;37.746;2023-12-29T01:20:41;4.05;;;2.58;;
23317;SDS011;11831;55.918;37.746;2023-12-29T01:23:07;3.75;;;2.42;;
23317;SDS011;11831;55.918;37.746;2023-12-29T01:25:33;4.53;;;2.60;;
23317;SDS011;11831;55.918;37.746;2023-12-29T01:27:59;3.72;;;2.85;;
23317;SDS011;11831;55.918;37.746;2023-12-29T01:30:25;4.32;;;2.85;;
23317;SDS011;11831;55.918;37.746;2023-12-29T01:32:51;3.47;;;2.60;;
23317;SDS011;11831;55.918;37.746;2023-12-29T01:35:17;5.10;;;3.30;;
23317;SDS011;11831;55.918;37.746;2023-12-29T01:37:43;6.60;;;3.40;;
23317;SDS011;11831;55.918;37.746;2023-12-29T01:40:09;4.85;;;3.28;;
23317;SDS011;11831;55.918;37.746;2023-12-29T01:42:35;4.82;;;3.45;;
23317;SDS011;11831;55.918;37.746;2023-12-29T01:45:01;6.00;;;3.28;;
23317;SDS011;11831;55.918;37.746;2023-12-29T01:47:30;4.68;;;3.15;;
23317;SDS011;11831;55.918;37.746;2023-12-29T01:49:56;4.10;;;3.28;;
23317;SDS011;11831;55.918;37.746;2023-12-29T01:52:22;4.95;;;3.10;;
23317;SDS011;11831;55.918;37.746;2023-12-29T01:54:49;5.00;;;3.53;;
23317;SDS011;11831;55.918;37.746;2023-12-29T01:57:16;5.35;;;3.35;;
23317;SDS011;11831;55.918;37.746;2023-12-29T01:59:43;7.45;;;3.65;;
23317;SDS011;11831;55.918;37.746;2023-12-29T02:02:11;4.78;;;3.22;;
23317;SDS011;11831;55.918;37.746;2023-12-29T02:04:37;4.78;;;3.42;;
23317;SDS011;11831;55.918;37.746;2023-12-29T02:07:05;4.55;;;3.28;;
23317;SDS011;11831;55.918;37.746;2023-12-29T02:09:31;4.65;;;3.08;;
23317;SDS011;11831;55.918;37.746;2023-12-29T02:12:00;5.57;;;3.33;;
23317;SDS011;11831;55.918;37.746;2023-12-29T02:14:26;3.92;;;2.92;;
23317;SDS011;11831;55.918;37.746;2023-12-29T02:19:40;4.47;;;3.03;;
23317;SDS011;11831;55.918;37.746;2023-12-29T02:22:06;6.12;;;3.28;;
23317;SDS011;11831;55.918;37.746;2023-12-29T02:24:34;5.35;;;3.22;;
23317;SDS011;11831;55.918;37.746;2023-12-29T02:30:15;4.03;;;2.90;;
23317;SDS011;11831;55.918;37.746;2023-12-29T02:32:44;3.62;;;2.60;;
23317;SDS011;11831;55.918;37.746;2023-12-29T02:35:13;3.78;;;2.62;;
23317;SDS011;11831;55.918;37.746;2023-12-29T02:37:39;4.50;;;3.12;;
23317;SDS011;11831;55.918;37.746;2023-12-29T02:40:09;3.95;;;2.83;;
23317;SDS011;11831;55.918;37.746;2023-12-29T02:42:36;3.33;;;2.70;;
23317;SDS011;11831;55.918;37.746;2023-12-29T02:45:02;4.25;;;2.67;;
23317;SDS011;11831;55.918;37.746;2023-12-29T02:47:32;4.87;;;2.95;;
23317;SDS011;11831;55.918;37.746;2023-12-29T02:49:58;5.72;;;2.62;;
23317;SDS011;11831;55.918;37.746;2023-12-29T02:52:25;3.80;;;2.62;;
23317;SDS011;11831;55.918;37.746;2023-12-29T02:54:51;3.47;;;2.70;;
23317;SDS011;11831;55.918;37.746;2023-12-29T02:57:17;7.87;;;2.97;;
23317;SDS011;11831;55.918;37.746;2023-12-29T02:59:43;3.30;;;2.45;;
23317;SDS011;11831;55.918;37.746;2023-12-29T03:02:10;3.08;;;2.42;;
23317;SDS011;11831;55.918;37.746;2023-12-29T03:04:36;3.47;;;2.58;;
23317;SDS011;11831;55.918;37.746;2023-12-29T03:07:02;3.90;;;2.40;;
23317;SDS011;11831;55.918;37.746;2023-12-29T03:09:28;3.67;;;2.58;;
23317;SDS011;11831;55.918;37.746;2023-12-29T03:11:54;4.10;;;2.60;;
23317;SDS011;11831;55.918;37.746;2023-12-29T03:14:20;4.80;;;2.80;;
23317;SDS011;11831;55.918;37.746;2023-12-29T03:16:46;3.70;;;2.40;;
23317;SDS011;11831;55.918;37.746;2023-12-29T03:19:12;3.22;;;2.58;;
23317;SDS011;11831;55.918;37.746;2023-12-29T03:21:38;4.32;;;2.40;;
23317;SDS011;11831;55.918;37.746;2023-12-29T03:24:04;7.10;;;3.35;;
23317;SDS011;11831;55.918;37.746;2023-12-29T03:26:30;3.90;;;2.90;;
23317;SDS011;11831;55.918;37.746;2023-12-29T03:28:56;4.62;;;2.80;;
23317;SDS011;11831;55.918;37.746;2023-12-29T03:31:22;3.97;;;2.70;;
23317;SDS011;11831;55.918;37.746;2023-12-29T03:33:48;4.35;;;2.70;;
23317;SDS011;11831;55.918;37.746;2023-12-29T03:36:14;4.53;;;2.90;;
23317;SDS011;11831;55.918;37.746;2023-12-29T03:38:40;4.05;;;2.70;;
23317;SDS011;11831;55.918;37.746;2023-12-29T03:41:07;3.45;;;2.75;;
23317;SDS011;11831;55.918;37.746;2023-12-29T03:43:33;4.18;;;2.60;;
23317;SDS011;11831;55.918;37.746;2023-12-29T03:45:59;4.32;;;2.87;;
23317;SDS011;11831;55.918;37.746;2023-12-29T03:48:25;3.60;;;2.72;;
23317;SDS011;11831;55.918;37.746;2023-12-29T03:50:51;3.83;;;2.87;;
23317;SDS011;11831;55.918;37.746;2023-12-29T03:53:17;4.15;;;2.78;;
23317;SDS011;11831;55.918;37.746;2023-12-29T03:55:45;3.97;;;2.50;;
23317;SDS011;11831;55.918;37.746;2023-12-29T03:58:11;5.35;;;3.00;;
23317;SDS011;11831;55.918;37.746;2023-12-29T04:00:38;5.03;;;2.90;;
23317;SDS011;11831;55.918;37.746;2023-12-29T04:03:07;3.42;;;2.62;;
23317;SDS011;11831;55.918;37.746;2023-12-29T04:05:34;5.03;;;2.75;;
23317;SDS011;11831;55.918;37.746;2023-12-29T04:08:01;4.20;;;2.75;;
23317;SDS011;11831;55.918;37.746;2023-12-29T04:10:27;4.72;;;2.87;;
23317;SDS011;11831;55.918;37.746;2023-12-29T04:12:53;3.97;;;2.80;;
23317;SDS011;11831;55.918;37.746;2023-12-29T04:15:19;3.70;;;2.50;;
23317;SDS011;11831;55.918;37.746;2023-12-29T04:17:46;4.62;;;3.00;;
23317;SDS011;11831;55.918;37.746;2023-12-29T04:20:13;5.70;;;3.00;;
23317;SDS011;11831;55.918;37.746;2023-12-29T04:22:39;4.68;;;2.85;;
23317;SDS011;11831;55.918;37.746;2023-12-29T04:25:06;5.15;;;3.08;;
23317;SDS011;11831;55.918;37.746;2023-12-29T04:27:33;6.10;;;2.85;;
23317;SDS011;11831;55.918;37.746;2023-12-29T04:30:00;5.18;;;2.87;;
23317;SDS011;11831;55.918;37.746;2023-12-29T04:32:27;5.00;;;3.08;;
23317;SDS011;11831;55.918;37.746;2023-12-29T04:34:53;6.68;;;2.87;;
23317;SDS011;11831;55.918;37.746;2023-12-29T04:37:20;4.55;;;3.00;;
23317;SDS011;11831;55.918;37.746;2023-12-29T04:39:47;4.25;;;2.85;;
23317;SDS011;11831;55.918;37.746;2023-12-29T04:42:13;3.97;;;2.90;;
23317;SDS011;11831;55.918;37.746;2023-12-29T04:44:40;3.87;;;2.60;;
23317;SDS011;11831;55.918;37.746;2023-12-29T04:47:06;4.80;;;2.95;;
23317;SDS011;11831;55.918;37.746;2023-12-29T04:49:33;4.50;;;3.12;;
23317;SDS011;11831;55.918;37.746;2023-12-29T04:52:00;4.43;;;3.08;;
23317;SDS011;11831;55.918;37.746;2023-12-29T04:54:27;4.53;;;2.78;;
23317;SDS011;11831;55.918;37.746;2023-12-29T04:56:53;4.78;;;3.28;;
23317;SDS011;11831;55.918;37.746;2023-12-29T04:59:20;5.80;;;3.70;;
23317;SDS011;11831;55.918;37.746;2023-12-29T05:01:46;5.20;;;3.37;;
23317;SDS011;11831;55.918;37.746;2023-12-29T05:04:13;5.47;;;3.65;;
23317;SDS011;11831;55.918;37.746;2023-12-29T05:06:40;5.03;;;3.55;;
23317;SDS011;11831;55.918;37.746;2023-12-29T05:09:07;5.07;;;3.78;;
23317;SDS011;11831;55.918;37.746;2023-12-29T05:11:34;4.90;;;3.65;;
23317;SDS011;11831;55.918;37.746;2023-12-29T05:14:01;6.12;;;3.70;;
23317;SDS011;11831;55.918;37.746;2023-12-29T05:16:27;6.90;;;3.70;;
23317;SDS011;11831;55.918;37.746;2023-12-29T05:18:54;6.07;;;3.87;;
23317;SDS011;11831;55.918;37.746;2023-12-29T05:21:20;4.68;;;3.60;;
23317;SDS011;11831;55.918;37.746;2023-12-29T05:23:47;5.15;;;3.80;;
23317;SDS011;11831;55.918;37.746;2023-12-29T05:26:14;5.40;;;4.22;;
23317;SDS011;11831;55.918;37.746;2023-12-29T05:28:41;5.78;;;3.72;;
23317;SDS011;11831;55.918;37.746;2023-12-29T05:31:08;6.43;;;3.78;;
23317;SDS011;11831;55.918;37.746;2023-12-29T05:33:35;5.12;;;3.90;;
23317;SDS011;11831;55.918;37.746;2023-12-29T05:36:05;5.05;;;3.47;;
23317;SDS011;11831;55.918;37.746;2023-12-29T05:38:34;5.53;;;3.80;;
23317;SDS011;11831;55.918;37.746;2023-12-29T05:41:02;6.15;;;4.40;;
23317;SDS011;11831;55.918;37.746;2023-12-29T05:43:31;7.50;;;4.12;;
23317;SDS011;11831;55.918;37.746;2023-12-29T05:45:59;7.53;;;4.40;;
23317;SDS011;11831;55.918;37.746;2023-12-29T05:48:26;8.60;;;4.10;;
23317;SDS011;11831;55.918;37.746;2023-12-29T05:50:53;7.32;;;4.20;;
23317;SDS011;11831;55.918;37.746;2023-12-29T05:53:20;7.53;;;4.12;;
23317;SDS011;11831;55.918;37.746;2023-12-29T05:55:46;7.43;;;4.07;;
23317;SDS011;11831;55.918;37.746;2023-12-29T05:58:13;7.30;;;4.68;;
23317;SDS011;11831;55.918;37.746;2023-12-29T06:00:39;7.97;;;4.60;;
23317;SDS011;11831;55.918;37.746;2023-12-29T06:03:06;8.13;;;4.22;;
23317;SDS011;11831;55.918;37.746;2023-12-29T06:05:33;5.95;;;4.12;;
23317;SDS011;11831;55.918;37.746;2023-12-29T06:07:59;7.25;;;4.45;;
23317;SDS011;11831;55.918;37.746;2023-12-29T06:10:26;8.30;;;4.57;;
23317;SDS011;11831;55.918;37.746;2023-12-29T06:12:52;6.07;;;4.30;;
23317;SDS011;11831;55.918;37.746;2023-12-29T06:15:19;9.60;;;4.78;;
23317;SDS011;11831;55.918;37.746;2023-12-29T06:17:46;7.62;;;5.05;;
23317;SDS011;11831;55.918;37.746;2023-12-29T06:20:13;7.18;;;4.43;;
23317;SDS011;11831;55.918;37.746;2023-12-29T06:22:40;5.85;;;4.30;;
23317;SDS011;11831;55.918;37.746;2023-12-29T06:25:10;9.55;;;5.00;;
23317;SDS011;11831;55.918;37.746;2023-12-29T06:27:37;8.38;;;4.72;;
23317;SDS011;11831;55.918;37.746;2023-12-29T06:30:05;7.22;;;4.65;;
23317;SDS011;11831;55.918;37.746;2023-12-29T06:32:37;7.97;;;4.20;;
23317;SDS011;11831;55.918;37.746;2023-12-29T06:35:04;7.12;;;4.62;;
23317;SDS011;11831;55.918;37.746;2023-12-29T06:37:31;7.32;;;4.22;;
23317;SDS011;11831;55.918;37.746;2023-12-29T06:39:58;7.15;;;4.50;;
23317;SDS011;11831;55.918;37.746;2023-12-29T06:42:25;8.07;;;4.72;;
23317;SDS011;11831;55.918;37.746;2023-12-29T06:44:53;9.27;;;4.95;;
23317;SDS011;11831;55.918;37.746;2023-12-29T06:47:19;7.75;;;4.95;;
23317;SDS011;11831;55.918;37.746;2023-12-29T06:49:45;8.07;;;4.68;;
23317;SDS011;11831;55.918;37.746;2023-12-29T06:52:12;8.13;;;5.15;;
23317;SDS011;11831;55.918;37.746;2023-12-29T06:54:38;15.65;;;8.02;;
23317;SDS011;11831;55.918;37.746;2023-12-29T06:57:05;11.32;;;6.05;;
23317;SDS011;11831;55.918;37.746;2023-12-29T06:59:32;15.23;;;7.62;;
23317;SDS011;11831;55.918;37.746;2023-12-29T07:01:59;8.18;;;5.15;;
23317;SDS011;11831;55.918;37.746;2023-12-29T07:04:25;10.07;;;5.55;;
23317;SDS011;11831;55.918;37.746;2023-12-29T07:06:52;10.07;;;5.85;;
23317;SDS011;11831;55.918;37.746;2023-12-29T07:09:19;10.27;;;5.65;;
23317;SDS011;11831;55.918;37.746;2023-12-29T07:11:49;7.82;;;5.30;;
23317;SDS011;11831;55.918;37.746;2023-12-29T07:14:16;9.65;;;5.25;;
23317;SDS011;11831;55.918;37.746;2023-12-29T07:16:43;6.65;;;4.93;;
23317;SDS011;11831;55.918;37.746;2023-12-29T07:19:10;8.48;;;5.07;;
23317;SDS011;11831;55.918;37.746;2023-12-29T07:21:36;10.45;;;5.78;;
23317;SDS011;11831;55.918;37.746;2023-12-29T07:24:03;10.70;;;5.65;;
23317;SDS011;11831;55.918;37.746;2023-12-29T07:26:32;11.00;;;5.55;;
23317;SDS011;11831;55.918;37.746;2023-12-29T07:29:00;13.10;;;6.00;;
23317;SDS011;11831;55.918;37.746;2023-12-29T07:31:27;9.60;;;5.12;;
23317;SDS011;11831;55.918;37.746;2023-12-29T07:33:53;8.95;;;5.30;;
23317;SDS011;11831;55.918;37.746;2023-12-29T07:36:21;11.63;;;5.85;;
23317;SDS011;11831;55.918;37.746;2023-12-29T07:38:48;7.65;;;5.45;;
23317;SDS011;11831;55.918;37.746;2023-12-29T07:41:15;10.63;;;5.72;;
23317;SDS011;11831;55.918;37.746;2023-12-29T07:43:43;8.27;;;5.68;;
23317;SDS011;11831;55.918;37.746;2023-12-29T07:46:09;9.63;;;5.57;;
23317;SDS011;11831;55.918;37.746;2023-12-29T07:48:36;11.40;;;5.70;;
23317;SDS011;11831;55.918;37.746;2023-12-29T07:51:04;12.35;;;6.07;;
23317;SDS011;11831;55.918;37.746;2023-12-29T07:53:32;9.95;;;5.87;;
23317;SDS011;11831;55.918;37.746;2023-12-29T07:55:59;14.48;;;6.07;;
23317;SDS011;11831;55.918;37.746;2023-12-29T07:58:25;12.20;;;6.60;;
23317;SDS011;11831;55.918;37.746;2023-12-29T08:00:52;10.45;;;6.68;;
23317;SDS011;11831;55.918;37.746;2023-12-29T08:03:19;12.63;;;7.65;;
23317;SDS011;11831;55.918;37.746;2023-12-29T08:05:45;14.68;;;8.38;;
23317;SDS011;11831;55.918;37.746;2023-12-29T08:08:12;11.88;;;6.82;;
23317;SDS011;11831;55.918;37.746;2023-12-29T08:10:38;13.23;;;6.40;;
23317;SDS011;11831;55.918;37.746;2023-12-29T08:13:05;12.30;;;6.53;;
23317;SDS011;11831;55.918;37.746;2023-12-29T08:15:35;14.77;;;8.02;;
23317;SDS011;11831;55.918;37.746;2023-12-29T08:18:03;11.00;;;6.20;;
23317;SDS011;11831;55.918;37.746;2023-12-29T08:20:30;15.20;;;7.40;;
23317;SDS011;11831;55.918;37.746;2023-12-29T08:22:56;14.00;;;7.82;;
23317;SDS011;11831;55.918;37.746;2023-12-29T08:25:23;16.45;;;7.95;;
23317;SDS011;11831;55.918;37.746;2023-12-29T08:27:49;15.68;;;7.60;;
23317;SDS011;11831;55.918;37.746;2023-12-29T08:30:16;16.75;;;6.85;;
23317;SDS011;11831;55.918;37.746;2023-12-29T08:32:42;14.32;;;6.82;;
23317;SDS011;11831;55.918;37.746;2023-12-29T08:35:09;14.05;;;6.62;;
23317;SDS011;11831;55.918;37.746;2023-12-29T08:37:35;12.85;;;6.95;;
23317;SDS011;11831;55.918;37.746;2023-12-29T08:40:02;13.65;;;6.85;;
23317;SDS011;11831;55.918;37.746;2023-12-29T08:42:30;13.43;;;6.72;;
23317;SDS011;11831;55.918;37.746;2023-12-29T08:44:58;15.35;;;7.62;;
23317;SDS011;11831;55.918;37.746;2023-12-29T08:47:25;14.68;;;7.32;;
23317;SDS011;11831;55.918;37.746;2023-12-29T08:49:52;11.38;;;7.43;;
23317;SDS011;11831;55.918;37.746;2023-12-29T08:52:20;16.55;;;8.38;;
23317;SDS011;11831;55.918;37.746;2023-12-29T08:54:46;14.07;;;7.82;;
23317;SDS011;11831;55.918;37.746;2023-12-29T08:57:13;12.85;;;7.55;;
23317;SDS011;11831;55.918;37.746;2023-12-29T08:59:40;12.45;;;6.75;;
23317;SDS011;11831;55.918;37.746;2023-12-29T09:02:06;11.43;;;6.97;;
23317;SDS011;11831;55.918;37.746;2023-12-29T09:04:33;9.05;;;5.87;;
23317;SDS011;11831;55.918;37.746;2023-12-29T09:06:59;9.57;;;4.57;;
23317;SDS011;11831;55.918;37.746;2023-12-29T09:09:26;9.00;;;5.07;;
23317;SDS011;11831;55.918;37.746;2023-12-29T09:11:52;8.23;;;5.30;;
23317;SDS011;11831;55.918;37.746;2023-12-29T09:14:19;7.03;;;5.22;;
23317;SDS011;11831;55.918;37.746;2023-12-29T09:16:45;10.45;;;4.65;;
23317;SDS011;11831;55.918;37.746;2023-12-29T09:19:12;10.95;;;4.62;;
23317;SDS011;11831;55.918;37.746;2023-12-29T09:21:39;7.45;;;4.87;;
23317;SDS011;11831;55.918;37.746;2023-12-29T09:24:06;8.93;;;5.57;;
23317;SDS011;11831;55.918;37.746;2023-12-29T09:26:32;7.22;;;4.70;;
23317;SDS011;11831;55.918;37.746;2023-12-29T09:28:59;8.18;;;5.07;;
23317;SDS011;11831;55.918;37.746;2023-12-29T09:31:25;9.90;;;5.28;;
23317;SDS011;11831;55.918;37.746;2023-12-29T09:33:52;10.38;;;5.22;;
23317;SDS011;11831;55.918;37.746;2023-12-29T09:36:18;10.85;;;5.40;;
23317;SDS011;11831;55.918;37.746;2023-12-29T09:38:45;10.07;;;5.47;;
23317;SDS011;11831;55.918;37.746;2023-12-29T09:41:14;7.55;;;4.82;;
23317;SDS011;11831;55.918;37.746;2023-12-29T09:43:42;12.63;;;5.43;;
23317;SDS011;11831;55.918;37.746;2023-12-29T09:46:10;7.87;;;5.57;;
23317;SDS011;11831;55.918;37.746;2023-12-29T09:48:39;11.12;;;5.53;;
23317;SDS011;11831;55.918;37.746;2023-12-29T09:51:09;7.95;;;5.40;;
23317;SDS011;11831;55.918;37.746;2023-12-29T09:53:37;7.20;;;4.85;;
23317;SDS011;11831;55.918;37.746;2023-12-29T09:56:04;9.13;;;5.70;;
23317;SDS011;11831;55.918;37.746;2023-12-29T09:58:34;10.30;;;6.20;;
23317;SDS011;11831;55.918;37.746;2023-12-29T10:01:03;10.13;;;5.70;;
23317;SDS011;11831;55.918;37.746;2023-12-29T10:03:33;20.98;;;8.35;;
23317;SDS011;11831;55.918;37.746;2023-12-29T10:06:00;17.85;;;7.72;;
23317;SDS011;11831;55.918;37.746;2023-12-29T10:08:29;14.15;;;7.25;;
23317;SDS011;11831;55.918;37.746;2023-12-29T10:11:00;9.87;;;6.30;;
23317;SDS011;11831;55.918;37.746;2023-12-29T10:13:28;13.65;;;6.87;;
23317;SDS011;11831;55.918;37.746;2023-12-29T10:16:02;11.07;;;5.97;;
23317;SDS011;11831;55.918;37.746;2023-12-29T10:18:42;9.82;;;6.25;;
23317;SDS011;11831;55.918;37.746;2023-12-29T10:21:23;16.48;;;6.53;;
23317;SDS011;11831;55.918;37.746;2023-12-29T10:24:03;12.90;;;6.85;;
23317;SDS011;11831;55.918;37.746;2023-12-29T10:26:34;11.82;;;6.93;;
23317;SDS011;11831;55.918;37.746;2023-12-29T10:29:01;10.30;;;6.03;;
23317;SDS011;11831;55.918;37.746;2023-12-29T10:31:27;10.13;;;6.37;;
23317;SDS011;11831;55.918;37.746;2023-12-29T10:36:58;8.82;;;5.78;;
23317;SDS011;11831;55.918;37.746;2023-12-29T10:39:27;11.63;;;6.28;;
23317;SDS011;11831;55.918;37.746;2023-12-29T10:42:04;11.95;;;6.72;;
23317;SDS011;11831;55.918;37.746;2023-12-29T10:44:35;11.48;;;6.35;;
23317;SDS011;11831;55.918;37.746;2023-12-29T10:47:09;8.73;;;6.15;;
23317;SDS011;11831;55.918;37.746;2023-12-29T10:49:37;13.30;;;6.93;;
23317;SDS011;11831;55.918;37.746;2023-12-29T10:52:14;16.35;;;6.93;;
23317;SDS011;11831;55.918;37.746;2023-12-29T10:54:44;12.18;;;7.05;;
23317;SDS011;11831;55.918;37.746;2023-12-29T10:57:11;12.02;;;7.00;;
23317;SDS011;11831;55.918;37.746;2023-12-29T10:59:39;14.90;;;7.75;;
23317;SDS011;11831;55.918;37.746;2023-12-29T11:02:06;12.03;;;7.90;;
23317;SDS011;11831;55.918;37.746;2023-12-29T11:04:34;13.95;;;8.00;;
23317;SDS011;11831;55.918;37.746;2023-12-29T11:07:01;10.73;;;6.62;;
23317;SDS011;11831;55.918;37.746;2023-12-29T11:09:28;13.77;;;7.18;;
23317;SDS011;11831;55.918;37.746;2023-12-29T11:11:57;12.57;;;7.10;;
23317;SDS011;11831;55.918;37.746;2023-12-29T11:14:26;12.43;;;7.68;;
23317;SDS011;11831;55.918;37.746;2023-12-29T11:16:56;12.95;;;7.28;;
23317;SDS011;11831;55.918;37.746;2023-12-29T11:21:56;13.20;;;7.25;;
23317;SDS011;11831;55.918;37.746;2023-12-29T11:24:23;11.77;;;7.03;;
23317;SDS011;11831;55.918;37.746;2023-12-29T11:26:51;13.27;;;6.85;;
23317;SDS011;11831;55.918;37.746;2023-12-29T11:29:19;12.40;;;6.75;;
23317;SDS011;11831;55.918;37.746;2023-12-29T11:31:45;13.27;;;6.60;;
23317;SDS011;11831;55.918;37.746;2023-12-29T11:40:19;11.63;;;6.63;;
23317;SDS011;11831;55.918;37.746;2023-12-29T11:42:49;9.38;;;6.32;;
23317;SDS011;11831;55.918;37.746;2023-12-29T11:45:30;13.73;;;7.53;;
23317;SDS011;11831;55.918;37.746;2023-12-29T11:48:00;11.02;;;6.87;;
23317;SDS011;11831;55.918;37.746;2023-12-29T11:50:32;11.97;;;6.83;;
23317;SDS011;11831;55.918;37.746;2023-12-29T11:53:04;13.43;;;8.00;;
23317;SDS011;11831;55.918;37.746;2023-12-29T11:55:34;12.93;;;7.18;;
23317;SDS011;11831;55.918;37.746;2023-12-29T11:58:05;11.20;;;6.57;;
23317;SDS011;11831;55.918;37.746;2023-12-29T12:00:51;12.73;;;8.02;;
23317;SDS011;11831;55.918;37.746;2023-12-29T12:03:18;10.43;;;6.65;;
23317;SDS011;11831;55.918;37.746;2023-12-29T12:05:47;12.43;;;7.28;;
23317;SDS011;11831;55.918;37.746;2023-12-29T12:10:55;11.85;;;7.12;;
23317;SDS011;11831;55.918;37.746;2023-12-29T12:16:08;10.27;;;6.43;;
23317;SDS011;11831;55.918;37.746;2023-12-29T12:18:35;13.10;;;6.95;;
23317;SDS011;11831;55.918;37.746;2023-12-29T12:21:04;10.15;;;7.05;;
23317;SDS011;11831;55.918;37.746;2023-12-29T12:23:32;10.38;;;6.72;;
23317;SDS011;11831;55.918;37.746;2023-12-29T12:26:02;9.13;;;5.87;;
23317;SDS011;11831;55.918;37.746;2023-12-29T12:28:31;9.80;;;5.80;;
23317;SDS011;11831;55.918;37.746;2023-12-29T12:31:04;12.57;;;6.07;;
23317;SDS011;11831;55.918;37.746;2023-12-29T12:33:33;10.95;;;6.95;;
23317;SDS011;11831;55.918;37.746;2023-12-29T12:36:02;16.80;;;7.30;;
23317;SDS011;11831;55.918;37.746;2023-12-29T12:38:29;11.10;;;6.05;;
23317;SDS011;11831;55.918;37.746;2023-12-29T12:40:57;17.30;;;7.57;;
23317;SDS011;11831;55.918;37.746;2023-12-29T12:43:36;8.23;;;5.53;;
23317;SDS011;11831;55.918;37.746;2023-12-29T12:46:11;12.68;;;6.35;;
23317;SDS011;11831;55.918;37.746;2023-12-29T12:48:41;11.07;;;6.40;;
23317;SDS011;11831;55.918;37.746;2023-12-29T12:51:12;10.23;;;6.30;;
23317;SDS011;11831;55.918;37.746;2023-12-29T12:53:40;8.02;;;5.28;;
23317;SDS011;11831;55.918;37.746;2023-12-29T12:56:07;7.50;;;5.22;;
23317;SDS011;11831;55.918;37.746;2023-12-29T12:58:34;9.70;;;5.43;;
23317;SDS011;11831;55.918;37.746;2023-12-29T13:01:01;8.82;;;5.47;;
23317;SDS011;11831;55.918;37.746;2023-12-29T13:03:29;8.30;;;5.68;;
23317;SDS011;11831;55.918;37.746;2023-12-29T13:05:58;23.58;;;16.20;;
23317;SDS011;11831;55.918;37.746;2023-12-29T13:08:26;7.95;;;5.30;;
23317;SDS011;11831;55.918;37.746;2023-12-29T13:10:53;9.93;;;5.65;;
23317;SDS011;11831;55.918;37.746;2023-12-29T13:13:20;9.50;;;5.75;;
23317;SDS011;11831;55.918;37.746;2023-12-29T13:15:47;7.93;;;4.80;;
23317;SDS011;11831;55.918;37.746;2023-12-29T13:18:15;8.02;;;5.45;;
23317;SDS011;11831;55.918;37.746;2023-12-29T13:20:48;7.80;;;5.72;;
23317;SDS011;11831;55.918;37.746;2023-12-29T13:23:15;7.75;;;5.05;;
23317;SDS011;11831;55.918;37.746;2023-12-29T13:25:46;8.32;;;5.70;;
23317;SDS011;11831;55.918;37.746;2023-12-29T13:28:13;7.40;;;5.90;;
23317;SDS011;11831;55.918;37.746;2023-12-29T13:30:41;9.50;;;6.07;;
23317;SDS011;11831;55.918;37.746;2023-12-29T13:33:12;8.32;;;5.30;;
23317;SDS011;11831;55.918;37.746;2023-12-29T13:35:53;9.32;;;5.40;;
23317;SDS011;11831;55.918;37.746;2023-12-29T13:38:27;9.45;;;6.25;;
23317;SDS011;11831;55.918;37.746;2023-12-29T13:41:01;8.00;;;5.50;;
23317;SDS011;11831;55.918;37.746;2023-12-29T13:43:38;12.95;;;6.07;;
23317;SDS011;11831;55.918;37.746;2023-12-29T13:46:09;8.43;;;5.93;;
23317;SDS011;11831;55.918;37.746;2023-12-29T13:48:37;8.68;;;5.68;;
23317;SDS011;11831;55.918;37.746;2023-12-29T13:51:04;8.93;;;6.22;;
23317;SDS011;11831;55.918;37.746;2023-12-29T13:53:31;11.00;;;6.28;;
23317;SDS011;11831;55.918;37.746;2023-12-29T13:56:13;9.70;;;6.65;;
23317;SDS011;11831;55.918;37.746;2023-12-29T13:58:40;10.60;;;6.50;;
23317;SDS011;11831;55.918;37.746;2023-12-29T14:01:08;10.32;;;6.47;;
23317;SDS011;11831;55.918;37.746;2023-12-29T14:03:54;9.65;;;6.40;;
23317;SDS011;11831;55.918;37.746;2023-12-29T14:07:11;8.48;;;5.70;;
23317;SDS011;11831;55.918;37.746;2023-12-29T14:09:17;11.45;;;6.57;;
23317;SDS011;11831;55.918;37.746;2023-12-29T14:11:45;9.85;;;6.90;;
23317;SDS011;11831;55.918;37.746;2023-12-29T14:14:12;12.48;;;6.68;;
23317;SDS011;11831;55.918;37.746;2023-12-29T14:16:42;10.88;;;6.65;;
23317;SDS011;11831;55.918;37.746;2023-12-29T14:19:09;11.85;;;7.95;;
23317;SDS011;11831;55.918;37.746;2023-12-29T14:21:36;11.73;;;7.15;;
23317;SDS011;11831;55.918;37.746;2023-12-29T14:26:37;12.55;;;7.65;;
23317;SDS011;11831;55.918;37.746;2023-12-29T14:29:11;13.82;;;7.97;;
23317;SDS011;11831;55.918;37.746;2023-12-29T14:31:39;15.13;;;7.80;;
23317;SDS011;11831;55.918;37.746;2023-12-29T14:34:07;12.32;;;7.93;;
23317;SDS011;11831;55.918;37.746;2023-12-29T14:36:35;13.05;;;7.95;;
23317;SDS011;11831;55.918;37.746;2023-12-29T14:39:03;12.35;;;7.68;;
23317;SDS011;11831;55.918;37.746;2023-12-29T14:41:30;12.50;;;7.72;;
23317;SDS011;11831;55.918;37.746;2023-12-29T14:43:57;12.13;;;7.28;;
23317;SDS011;11831;55.918;37.746;2023-12-29T14:46:24;12.02;;;8.10;;
23317;SDS011;11831;55.918;37.746;2023-12-29T14:48:52;10.75;;;8.02;;
23317;SDS011;11831;55.918;37.746;2023-12-29T14:51:19;12.30;;;7.60;;
23317;SDS011;11831;55.918;37.746;2023-12-29T14:53:47;11.98;;;8.02;;
23317;SDS011;11831;55.918;37.746;2023-12-29T14:56:15;13.68;;;8.05;;
23317;SDS011;11831;55.918;37.746;2023-12-29T14:58:43;13.40;;;8.55;;